CST,Max TemperatureF,Mean TemperatureF,Min TemperatureF,Max Dew PointF,MeanDew PointF,Min DewpointF,Max Humidity, Mean Humidity, Min Humidity, Max Sea Level PressureIn, Mean Sea Level PressureIn, Min Sea Level PressureIn, Max VisibilityMiles, Mean VisibilityMiles, Min VisibilityMiles, Max Wind SpeedMPH, Mean Wind SpeedMPH, Max Gust SpeedMPH,PrecipitationIn, CloudCover, Events, WindDirDegrees
2012-1-1,33,28,24,32,25,18,93,86,74,29.97,29.74,29.57,10,5,1,18,8,31,0.00,8,Snow,286
2012-1-2,19,16,12,14,7,1,80,68,58,30.37,30.19,30.02,10,9,3,21,12,30,0.00,5,Snow,304
2012-1-3,19,8,-2,10,2,-6,92,70,49,30.38,30.18,29.92,10,10,10,13,3,,0.00,0,,180
2012-1-4,30,20,10,19,15,7,92,75,64,29.99,29.91,29.84,10,10,10,10,5,18,0.00,0,,264
2012-1-5,42,26,10,32,21,9,93,79,61,29.95,29.77,29.56,10,9,7,9,2,,0.13,0,,218
2012-1-6,44,40,37,32,30,28,70,62,53,29.70,29.62,29.54,10,10,10,10,7,18,0.00,1,,258
2012-1-7,35,32,28,28,22,19,75,67,56,30.18,29.96,29.72,10,10,10,18,8,26,0.00,5,,283
2012-1-8,37,27,17,27,22,16,93,81,65,30.27,30.22,30.19,10,10,10,8,2,,0.00,0,,232
2012-1-9,44,35,26,28,26,23,86,69,49,30.11,29.90,29.79,10,10,10,18,9,29,0.00,2,,229
2012-1-10,48,32,17,32,26,16,100,77,50,29.97,29.86,29.72,10,10,7,13,3,16,0.00,0,,192
2012-1-11,46,35,24,34,29,23,100,80,53,29.67,29.59,29.54,10,10,7,12,2,16,0.00,1,,290
2012-1-12,30,24,19,27,19,14,93,83,74,29.58,29.55,29.50,10,4,1,18,11,29,0.00,8,Snow,332
2012-1-13,19,17,15,12,10,9,79,71,63,29.95,29.78,29.60,10,9,0,15,10,23,0.00,8,Snow,317
2012-1-14,15,14,12,10,7,3,86,76,58,30.11,30.04,29.96,10,9,3,8,1,,0.00,8,Snow,94
2012-1-15,30,21,12,21,16,7,86,78,68,30.18,30.10,29.94,10,10,7,15,5,22,0.00,5,Snow,151
2012-1-16,35,28,21,27,23,19,100,82,65,29.85,29.75,29.69,10,8,2,12,5,17,0.01,2,,48
2012-1-17,30,18,5,21,12,-2,86,73,63,30.17,29.94,29.76,10,8,1,17,10,24,0.00,6,Snow,322
2012-1-18,19,5,-9,16,0,-13,93,72,53,30.18,29.96,29.62,10,9,1,15,5,20,0.00,2,Snow,188
2012-1-19,19,4,-14,16,-14,-20,86,58,39,30.13,29.97,29.62,10,9,1,20,12,32,0.00,1,Snow,282
2012-1-20,5,-6,-18,0,-10,-24,92,74,56,30.16,30.14,30.13,10,8,1,5,0,,0.00,4,Snow,231
2012-1-21,17,2,-14,3,-7,-20,92,68,45,30.21,30.17,30.08,10,10,10,9,1,,0.00,0,,142
2012-1-22,28,22,15,28,19,9,100,87,73,30.00,29.75,29.49,10,6,1,16,7,21,0.00,6,,120
2012-1-23,30,27,24,30,25,19,100,89,74,29.75,29.47,29.29,10,5,0,17,8,28,0.00,8,Snow,284
2012-1-24,26,19,12,19,17,10,93,82,69,30.28,30.08,29.78,10,9,5,14,9,23,0.00,5,,267
2012-1-25,30,21,12,25,19,9,93,82,69,30.34,30.18,29.98,10,7,2,10,2,,0.01,7,,147
2012-1-26,33,28,24,30,27,21,100,92,86,29.96,29.76,29.63,7,3,0,10,6,,0.00,7,Fog,185
2012-1-27,39,28,17,28,19,14,93,67,36,29.84,29.77,29.66,10,10,4,20,7,26,0.08,4,Snow,230
2012-1-28,33,25,17,30,16,12,93,73,55,29.92,29.83,29.71,10,10,3,18,11,29,0.00,6,Snow,268
2012-1-29,19,12,3,12,7,0,92,70,53,30.13,30.01,29.90,10,10,10,15,4,21,0.00,1,,275
2012-1-30,33,18,3,21,13,0,85,72,60,30.10,29.87,29.72,10,10,2,12,4,18,0.01,4,Snow,118
2012-1-31,46,32,19,34,27,16,93,76,53,29.76,29.66,29.61,10,8,3,15,3,20,0.00,0,,237